Time;durP1;ratioP1;P1;durP2;ratioP2;P2;SDS_P1;SDS_P2;PMS_P1;PMS_P2;Temp;Humidity;BMP_temperature;BMP_pressure;BME280_temperature;BME280_humidity;BME280_pressure;Samples;Min_cycle;Max_cycle;Signal;HPM_P1;HPM_P2
2023/07/16 00:01:39;;;;;;;5.00;4.50;;;;;;;21.11;76.83;98266.63;4997054;28;20030;-81
2023/07/16 00:04:05;;;;;;;6.18;4.10;;;;;;;21.14;76.41;98295.84;5029863;28;20058;-81
2023/07/16 00:06:30;;;;;;;6.22;4.50;;;;;;;20.90;77.50;98270.09;5013392;28;20092;-81
2023/07/16 00:08:55;;;;;;;6.35;4.82;;;;;;;21.09;76.45;98271.59;5029651;28;20470;-81
2023/07/16 00:11:21;;;;;;;9.35;4.60;;;;;;;21.01;76.86;98286.00;5013177;28;20108;-81
2023/07/16 00:13:47;;;;;;;4.28;3.50;;;;;;;21.13;76.63;98286.09;5014517;28;20034;-81
2023/07/16 00:16:13;;;;;;;4.13;3.72;;;;;;;21.13;76.51;98283.38;5029564;28;20418;-81
2023/07/16 00:18:39;;;;;;;10.55;4.65;;;;;;;20.92;77.71;98284.13;5012760;28;20029;-81
2023/07/16 00:21:04;;;;;;;3.42;3.13;;;;;;;21.00;76.79;98276.25;5014402;28;20062;-81
2023/07/16 00:23:30;;;;;;;10.38;4.68;;;;;;;20.76;78.82;98272.28;4996661;28;20481;-81
2023/07/16 00:25:55;;;;;;;4.70;4.15;;;;;;;20.89;77.27;98260.38;5012777;28;20030;-81
2023/07/16 00:28:20;;;;;;;6.63;3.85;;;;;;;20.96;77.51;98232.72;5012969;28;20026;-81
2023/07/16 00:30:46;;;;;;;8.55;4.57;;;;;;;20.62;79.10;98160.50;5013021;28;20061;-81
2023/07/16 00:33:11;;;;;;;4.20;3.70;;;;;;;20.55;79.21;98154.81;5014179;28;20026;-81
2023/07/16 00:35:36;;;;;;;9.38;4.25;;;;;;;20.87;77.41;98178.53;4996003;28;20065;-81
2023/07/16 00:38:02;;;;;;;4.07;3.35;;;;;;;20.88;77.02;98199.09;5012681;28;20080;-81
2023/07/16 00:40:27;;;;;;;6.45;4.15;;;;;;;21.00;76.91;98232.84;5029208;28;20108;-81
2023/07/16 00:42:52;;;;;;;4.93;4.05;;;;;;;20.99;76.76;98220.41;5012674;28;20037;-81
2023/07/16 00:45:18;;;;;;;5.53;3.60;;;;;;;21.04;76.34;98225.66;5013923;28;20030;-81
2023/07/16 00:47:44;;;;;;;3.97;3.55;;;;;;;20.98;76.71;98229.66;4996104;28;20034;-81
2023/07/16 00:50:13;;;;;;;4.22;3.33;;;;;;;20.97;76.62;98209.88;5012598;28;20022;-81
2023/07/16 00:52:38;;;;;;;6.30;4.10;;;;;;;20.93;77.19;98204.31;5012302;28;20064;-81
2023/07/16 00:55:06;;;;;;;5.00;3.80;;;;;;;20.85;76.46;98172.63;5013610;28;20030;-81
2023/07/16 00:57:32;;;;;;;4.65;3.22;;;;;;;21.00;76.76;98200.28;5028499;28;20034;-81
2023/07/16 00:59:58;;;;;;;3.50;3.20;;;;;;;20.89;76.73;98202.59;5013593;28;20037;-81
2023/07/16 01:02:23;;;;;;;6.40;3.92;;;;;;;20.91;76.99;98260.03;5012437;28;20030;-81
2023/07/16 01:04:49;;;;;;;3.88;3.38;;;;;;;20.73;77.77;98294.63;5011246;28;20121;-81
2023/07/16 01:07:15;;;;;;;4.88;3.65;;;;;;;20.68;78.23;98307.59;5012151;28;20033;-81
2023/07/16 01:09:44;;;;;;;7.75;3.95;;;;;;;20.74;78.05;98317.13;5012155;28;20025;-81
2023/07/16 01:12:10;;;;;;;3.78;3.47;;;;;;;20.64;77.65;98299.28;5012173;28;20038;-81
2023/07/16 01:14:38;;;;;;;6.55;3.50;;;;;;;20.79;77.13;98278.97;5028750;28;20034;-81
2023/07/16 01:17:06;;;;;;;4.75;3.33;;;;;;;20.81;77.30;98260.44;5011828;28;20045;-81
2023/07/16 01:19:35;;;;;;;3.50;3.20;;;;;;;20.85;76.90;98296.63;5012026;28;20478;-81
2023/07/16 01:22:07;;;;;;;4.57;3.15;;;;;;;20.87;76.78;98294.38;5011837;28;20029;-81
2023/07/16 01:24:52;;;;;;;5.07;3.67;;;;;;;20.72;76.97;98271.34;5011653;28;20026;-81
2023/07/16 01:27:45;;;;;;;3.95;3.08;;;;;;;20.50;79.30;98251.84;5011543;28;20025;-81
2023/07/16 01:30:15;;;;;;;4.28;3.28;;;;;;;20.76;76.87;98245.16;5012995;28;20022;-81
2023/07/16 01:32:41;;;;;;;4.18;3.00;;;;;;;20.82;76.66;98267.44;5013138;28;20030;-81
2023/07/16 01:35:08;;;;;;;4.65;3.08;;;;;;;20.85;76.33;98274.94;4994930;28;20038;-81
2023/07/16 01:37:34;;;;;;;4.10;3.30;;;;;;;20.70;77.24;98262.75;5012698;28;20091;-81
2023/07/16 01:40:00;;;;;;;3.47;2.88;;;;;;;20.66;77.56;98250.16;5011276;28;20029;-80
2023/07/16 01:42:26;;;;;;;3.60;3.28;;;;;;;20.78;76.55;98251.03;5011508;28;20116;-81
2023/07/16 01:44:51;;;;;;;3.72;3.30;;;;;;;20.76;76.47;98245.16;5028051;28;20116;-81
2023/07/16 01:47:40;;;;;;;5.50;3.47;;;;;;;20.69;76.47;98247.56;5027985;28;20029;-81
2023/07/16 01:50:06;;;;;;;6.53;3.58;;;;;;;20.70;76.89;98246.47;5011500;28;20033;-81
2023/07/16 01:52:31;;;;;;;5.03;3.33;;;;;;;20.77;76.92;98252.16;5011410;28;20164;-81
2023/07/16 01:54:56;;;;;;;3.70;3.15;;;;;;;20.75;77.29;98281.53;5027650;28;20117;-80
2023/07/16 01:57:22;;;;;;;7.22;3.83;;;;;;;20.58;78.01;98286.25;5012503;28;20038;-81
2023/07/16 01:59:47;;;;;;;5.38;3.17;;;;;;;20.33;79.34;98293.41;5010986;28;20034;-81
2023/07/16 02:02:12;;;;;;;7.25;3.65;;;;;;;20.45;78.93;98307.03;5011192;28;20026;-81
2023/07/16 02:04:38;;;;;;;5.97;3.85;;;;;;;20.49;78.46;98316.13;5027766;28;20041;-81
2023/07/16 02:07:03;;;;;;;5.25;3.35;;;;;;;20.47;78.72;98285.81;5027545;28;20030;-81
2023/07/16 02:09:29;;;;;;;5.20;3.65;;;;;;;20.13;80.61;98253.41;5012311;28;20028;-81
2023/07/16 02:11:54;;;;;;;4.57;3.53;;;;;;;20.41;79.24;98260.03;5011230;28;20073;-81
2023/07/16 02:14:20;;;;;;;4.35;3.30;;;;;;;20.50;78.41;98263.50;5010816;28;20531;-81
2023/07/16 02:16:45;;;;;;;3.17;2.90;;;;;;;20.40;79.32;98273.91;5010833;28;20552;-82
2023/07/16 02:19:10;;;;;;;4.65;3.22;;;;;;;20.35;79.46;98239.66;5010873;28;20029;-81
2023/07/16 02:21:36;;;;;;;3.42;3.13;;;;;;;20.39;79.33;98267.69;4994519;28;20030;-81
2023/07/16 02:24:01;;;;;;;4.55;3.05;;;;;;;20.35;79.23;98260.53;5027395;28;20060;-81
2023/07/16 02:26:26;;;;;;;5.32;3.25;;;;;;;20.31;79.68;98265.00;5012312;28;20109;-81
2023/07/16 02:28:52;;;;;;;5.32;3.40;;;;;;;20.32;79.03;98266.59;5027174;28;20026;-81
2023/07/16 02:31:17;;;;;;;8.43;3.25;;;;;;;20.43;79.12;98276.75;4994526;28;20378;-81
2023/07/16 02:33:43;;;;;;;4.28;3.30;;;;;;;20.51;78.75;98269.72;5010718;28;20106;-81
2023/07/16 02:36:08;;;;;;;3.65;3.35;;;;;;;20.41;78.73;98270.88;5010569;28;20410;-81
2023/07/16 02:38:33;;;;;;;7.70;4.00;;;;;;;20.20;79.61;98267.25;5010390;28;20030;-81
2023/07/16 02:40:59;;;;;;;7.60;3.20;;;;;;;20.12;79.79;98270.78;5010642;28;20445;-81
2023/07/16 02:43:24;;;;;;;4.55;3.08;;;;;;;20.20;79.57;98280.81;5012014;28;20108;-81
2023/07/16 02:45:50;;;;;;;6.47;3.50;;;;;;;20.13;79.85;98269.69;5027204;28;20112;-81
2023/07/16 02:48:15;;;;;;;4.35;2.83;;;;;;;20.13;80.02;98285.94;5026852;28;20101;-81
2023/07/16 02:50:41;;;;;;;5.68;3.40;;;;;;;20.05;80.09;98286.75;5011869;28;20442;-81
2023/07/16 02:53:07;;;;;;;5.80;3.17;;;;;;;20.00;79.98;98282.31;5027015;28;20474;-81
2023/07/16 02:55:34;;;;;;;5.38;3.55;;;;;;;19.87;80.46;98285.22;5027131;28;20037;-81
2023/07/16 02:58:02;;;;;;;7.88;4.00;;;;;;;19.97;80.17;98287.56;5010138;28;20065;-81
2023/07/16 03:00:27;;;;;;;3.25;2.95;;;;;;;19.92;80.15;98285.06;5026603;28;20029;-81
2023/07/16 03:02:53;;;;;;;4.22;3.47;;;;;;;19.89;80.55;98302.75;5010382;28;20021;-81
2023/07/16 03:05:18;;;;;;;4.90;3.22;;;;;;;19.95;80.44;98303.34;5010603;28;20029;-81
2023/07/16 03:07:44;;;;;;;6.50;3.88;;;;;;;19.84;81.05;98304.81;5010214;28;20061;-81
2023/07/16 03:10:10;;;;;;;4.90;3.63;;;;;;;19.83;80.75;98311.34;5011915;28;20026;-81
2023/07/16 03:12:35;;;;;;;7.65;3.92;;;;;;;19.77;81.27;98324.25;5010245;28;20029;-81
2023/07/16 03:15:00;;;;;;;10.13;4.80;;;;;;;19.72;81.30;98313.59;5010356;28;20026;-81
2023/07/16 03:17:26;;;;;;;6.82;3.20;;;;;;;19.86;80.66;98319.63;5011597;28;20044;-81
2023/07/16 03:19:51;;;;;;;8.43;3.13;;;;;;;19.78;80.91;98316.94;5026801;28;20418;-81
2023/07/16 03:22:16;;;;;;;4.03;3.63;;;;;;;19.80;80.38;98320.13;5010087;28;20025;-81
2023/07/16 03:24:42;;;;;;;6.60;3.40;;;;;;;19.71;80.12;98311.19;4994028;28;20033;-81
2023/07/16 03:27:07;;;;;;;5.40;2.90;;;;;;;19.75;80.31;98339.22;5011020;28;20034;-81
2023/07/16 03:29:33;;;;;;;6.97;3.33;;;;;;;19.75;80.35;98342.75;5015029;28;20029;-81
2023/07/16 03:31:59;;;;;;;10.55;3.40;;;;;;;19.61;80.26;98341.31;5011302;28;20092;-81
2023/07/16 03:34:25;;;;;;;7.65;3.80;;;;;;;19.61;80.25;98344.03;5011873;28;20030;-81
2023/07/16 03:36:50;;;;;;;7.40;3.33;;;;;;;19.59;80.24;98346.25;5010380;28;20030;-81
2023/07/16 03:39:15;;;;;;;4.50;3.00;;;;;;;19.67;79.62;98348.97;5012758;28;20037;-81
2023/07/16 03:41:41;;;;;;;5.68;3.40;;;;;;;19.59;80.12;98357.91;5032350;28;20078;-81
2023/07/16 03:44:06;;;;;;;6.63;3.20;;;;;;;19.51;80.39;98368.69;5008912;28;20033;-81
2023/07/16 03:46:31;;;;;;;4.65;3.53;;;;;;;19.54;79.93;98351.81;5034921;28;20033;-81
2023/07/16 03:48:57;;;;;;;7.38;3.13;;;;;;;19.54;80.08;98365.38;5017004;28;20048;-80
2023/07/16 03:51:22;;;;;;;5.38;3.33;;;;;;;19.55;79.78;98364.25;5000604;28;20056;-80
2023/07/16 03:53:47;;;;;;;2.83;2.53;;;;;;;19.54;79.69;98377.00;5016965;28;20033;-81
2023/07/16 03:56:13;;;;;;;4.57;3.83;;;;;;;19.50;79.23;98376.03;5034663;28;20033;-80
2023/07/16 03:58:38;;;;;;;6.18;3.97;;;;;;;19.58;79.08;98377.94;5016497;28;20068;-80
2023/07/16 04:01:03;;;;;;;5.30;2.95;;;;;;;19.63;79.12;98396.75;5033321;28;20346;-81
2023/07/16 04:03:29;;;;;;;6.07;2.83;;;;;;;19.48;79.01;98389.09;5034504;28;20098;-81
2023/07/16 04:06:02;;;;;;;4.97;2.72;;;;;;;19.55;79.14;98402.94;5034748;28;20444;-81
2023/07/16 04:08:28;;;;;;;6.75;2.90;;;;;;;19.42;79.60;98401.97;5034286;28;20057;-80
2023/07/16 04:10:53;;;;;;;7.43;3.17;;;;;;;19.51;79.21;98409.31;5016586;28;20095;-81
2023/07/16 04:13:18;;;;;;;7.80;3.00;;;;;;;19.21;79.87;98395.56;5033131;28;20082;-81
2023/07/16 04:15:44;;;;;;;4.72;3.28;;;;;;;19.28;79.69;98422.94;5034423;28;20156;-80
2023/07/16 04:18:09;;;;;;;6.72;3.00;;;;;;;19.43;79.24;98424.44;5032924;28;20420;-80
2023/07/16 04:20:34;;;;;;;8.05;3.25;;;;;;;19.44;79.16;98407.88;5032840;28;20083;-81
2023/07/16 04:23:00;;;;;;;5.78;3.13;;;;;;;19.42;78.88;98429.03;5016352;28;20072;-81
2023/07/16 04:25:25;;;;;;;4.38;2.50;;;;;;;19.37;78.56;98414.88;5016299;28;20061;-81
2023/07/16 04:27:51;;;;;;;4.97;2.65;;;;;;;19.29;78.56;98407.50;5015994;28;20029;-80
2023/07/16 04:30:16;;;;;;;5.25;2.90;;;;;;;19.48;78.39;98437.03;5032826;28;20033;-80
2023/07/16 04:32:41;;;;;;;5.40;2.85;;;;;;;19.51;77.93;98437.19;5032799;28;20037;-81
2023/07/16 04:35:07;;;;;;;7.57;2.67;;;;;;;19.51;77.90;98445.31;5032584;28;20128;-80
2023/07/16 04:37:32;;;;;;;5.28;3.70;;;;;;;19.54;77.47;98441.97;5032273;28;20056;-80
2023/07/16 04:39:58;;;;;;;6.07;3.13;;;;;;;19.64;77.23;98446.28;4999169;28;20499;-80
2023/07/16 04:42:23;;;;;;;4.47;2.60;;;;;;;19.73;76.67;98445.16;5032708;28;20036;-80
2023/07/16 04:44:48;;;;;;;5.05;2.75;;;;;;;19.68;77.04;98447.25;5015931;28;20506;-80
2023/07/16 04:47:14;;;;;;;5.38;2.88;;;;;;;19.84;76.21;98441.03;5032542;28;20035;-80
2023/07/16 04:49:39;;;;;;;3.40;2.60;;;;;;;19.89;76.11;98449.03;5032605;28;20097;-80
2023/07/16 04:52:05;;;;;;;6.88;2.78;;;;;;;19.97;76.14;98445.50;5032314;28;20079;-80
2023/07/16 04:54:36;;;;;;;6.32;2.83;;;;;;;20.11;75.19;98459.69;4999670;28;20030;-80
2023/07/16 04:57:01;;;;;;;6.53;2.38;;;;;;;20.11;75.35;98475.16;5031980;28;20053;-80
2023/07/16 04:59:26;;;;;;;4.22;2.33;;;;;;;20.14;75.53;98474.50;5015531;28;20053;-81
2023/07/16 05:01:52;;;;;;;4.05;2.25;;;;;;;20.15;75.07;98460.66;5033631;28;20029;-81
2023/07/16 05:04:17;;;;;;;6.88;2.53;;;;;;;20.27;74.67;98486.34;5015734;28;20370;-80
2023/07/16 05:06:42;;;;;;;7.20;2.85;;;;;;;20.16;75.03;98478.47;5032143;28;20366;-80
2023/07/16 05:09:08;;;;;;;6.10;2.83;;;;;;;20.09;74.84;98480.09;5015609;28;20026;-80
2023/07/16 05:11:33;;;;;;;4.20;2.40;;;;;;;20.27;74.69;98489.81;5015719;28;20030;-81
2023/07/16 05:13:59;;;;;;;6.35;2.60;;;;;;;20.22;74.71;98497.34;5031971;28;20065;-80
2023/07/16 05:16:24;;;;;;;4.50;2.53;;;;;;;20.34;74.43;98511.84;5032080;28;20079;-80
2023/07/16 05:18:50;;;;;;;4.53;2.25;;;;;;;20.21;74.76;98520.91;5031563;28;20079;-80
2023/07/16 05:21:16;;;;;;;7.43;2.50;;;;;;;20.37;74.06;98515.81;5033164;28;20076;-80
2023/07/16 05:23:41;;;;;;;4.43;2.60;;;;;;;20.39;74.17;98519.81;5014969;28;20033;-80
2023/07/16 05:26:06;;;;;;;4.05;1.98;;;;;;;20.36;74.16;98520.44;5031727;28;20112;-80
2023/07/16 05:28:32;;;;;;;9.20;3.42;;;;;;;20.41;73.64;98533.03;5031611;28;20057;-80
2023/07/16 05:31:01;;;;;;;3.42;2.28;;;;;;;20.41;74.28;98539.25;5031872;28;20026;-80
2023/07/16 05:33:27;;;;;;;4.60;2.83;;;;;;;20.33;74.42;98529.22;5031591;28;20567;-80
2023/07/16 05:35:52;;;;;;;9.95;3.03;;;;;;;20.51;74.22;98541.63;5031330;28;20117;-80
2023/07/16 05:38:18;;;;;;;4.63;2.83;;;;;;;20.46;73.94;98543.72;5014514;28;20036;-81
2023/07/16 05:40:43;;;;;;;6.40;2.67;;;;;;;20.65;73.09;98547.69;5030990;28;20072;-80
2023/07/16 05:43:08;;;;;;;2.90;2.40;;;;;;;20.54;73.34;98554.56;5031508;28;20094;-80
2023/07/16 05:45:34;;;;;;;3.35;2.65;;;;;;;20.49;74.10;98552.00;5015160;28;20152;-81
2023/07/16 05:47:59;;;;;;;4.32;2.15;;;;;;;20.49;73.64;98562.84;5014714;28;20041;-80
2023/07/16 05:50:24;;;;;;;4.75;2.63;;;;;;;20.50;73.25;98534.63;5032095;28;20076;-80
2023/07/16 05:52:50;;;;;;;7.28;2.45;;;;;;;20.58;72.94;98552.00;5031198;28;20028;-81
2023/07/16 05:55:15;;;;;;;6.97;2.22;;;;;;;20.60;72.97;98549.75;5014731;28;20060;-80
2023/07/16 05:57:41;;;;;;;5.35;2.58;;;;;;;20.66;72.89;98568.25;5014632;28;20032;-80
2023/07/16 06:00:07;;;;;;;7.28;2.47;;;;;;;20.50;72.68;98545.47;5032421;28;20037;-80
2023/07/16 06:02:32;;;;;;;5.88;2.97;;;;;;;20.47;73.31;98554.25;5014467;28;20022;-80
2023/07/16 06:04:57;;;;;;;8.05;3.28;;;;;;;20.61;72.87;98568.44;5031043;28;20083;-80
2023/07/16 06:07:23;;;;;;;5.38;2.60;;;;;;;20.70;71.91;98546.75;5030795;28;20056;-80
2023/07/16 06:09:48;;;;;;;4.60;2.20;;;;;;;20.75;72.18;98576.41;5030759;28;20488;-80
2023/07/16 06:12:14;;;;;;;6.18;2.20;;;;;;;20.75;71.88;98577.19;5030937;28;20036;-80
2023/07/16 06:14:39;;;;;;;5.68;2.60;;;;;;;20.75;72.18;98585.34;5030994;28;20026;-80
2023/07/16 06:17:05;;;;;;;8.15;2.60;;;;;;;20.55;72.40;98564.28;5031948;28;20033;-80
2023/07/16 06:19:30;;;;;;;5.50;2.60;;;;;;;20.58;72.78;98577.22;5030821;28;20484;-80
2023/07/16 06:21:56;;;;;;;5.07;2.30;;;;;;;20.35;72.77;98578.50;5030522;28;20131;-80
2023/07/16 06:24:21;;;;;;;5.28;2.53;;;;;;;20.68;72.18;98584.25;4998072;28;20033;-81
2023/07/16 06:26:47;;;;;;;12.10;2.70;;;;;;;20.49;72.56;98560.16;5030460;28;20025;-81
2023/07/16 06:29:13;;;;;;;7.35;2.30;;;;;;;20.71;71.95;98597.16;5047384;28;20496;-80
2023/07/16 06:31:38;;;;;;;5.78;2.45;;;;;;;20.67;71.34;98571.78;5031922;28;20029;-80
2023/07/16 06:34:04;;;;;;;6.07;2.47;;;;;;;20.71;71.59;98572.72;5030739;28;20053;-81
2023/07/16 06:36:29;;;;;;;8.18;3.17;;;;;;;20.64;71.53;98584.06;5031827;28;20033;-80
2023/07/16 06:38:54;;;;;;;8.50;3.10;;;;;;;20.72;71.17;98586.00;5030998;28;20441;-80
2023/07/16 06:41:20;;;;;;;5.25;2.25;;;;;;;20.72;70.66;98596.84;5013874;28;20040;-80
2023/07/16 06:43:45;;;;;;;7.55;2.35;;;;;;;20.65;70.88;98584.88;5013993;28;20036;-81
2023/07/16 06:46:11;;;;;;;5.18;3.20;;;;;;;20.70;70.68;98599.09;5030414;28;20083;-81
2023/07/16 06:48:37;;;;;;;3.28;2.45;;;;;;;20.82;69.99;98593.00;5030117;28;20104;-81
2023/07/16 06:51:03;;;;;;;7.30;2.10;;;;;;;20.94;69.36;98590.44;5013927;28;20025;-81
2023/07/16 06:53:28;;;;;;;8.65;2.95;;;;;;;20.87;69.75;98588.22;5030082;28;20087;-81
2023/07/16 06:55:53;;;;;;;5.20;2.35;;;;;;;20.97;69.13;98592.47;5030047;28;20109;-81
2023/07/16 06:58:19;;;;;;;4.70;2.35;;;;;;;21.07;69.02;98594.09;5013423;28;20053;-81
2023/07/16 07:00:44;;;;;;;9.73;3.25;;;;;;;21.08;68.88;98601.91;5030144;28;20029;-81
2023/07/16 07:03:09;;;;;;;8.02;2.35;;;;;;;21.07;68.87;98605.75;5033212;28;20082;-81
2023/07/16 07:05:36;;;;;;;4.22;2.63;;;;;;;20.96;68.26;98593.63;5035655;28;20053;-81
2023/07/16 07:08:02;;;;;;;9.35;2.58;;;;;;;21.03;68.38;98595.84;5034052;28;20030;-81
2023/07/16 07:10:27;;;;;;;5.68;2.30;;;;;;;21.06;68.19;98584.34;5034386;28;20041;-81
2023/07/16 07:12:53;;;;;;;6.10;2.80;;;;;;;21.16;68.05;98584.03;5034005;28;20029;-81
2023/07/16 07:15:18;;;;;;;6.80;2.67;;;;;;;21.29;68.07;98599.31;5034196;28;20029;-81
2023/07/16 07:17:46;;;;;;;5.50;2.30;;;;;;;21.28;67.63;98603.94;5033883;28;20543;-81
2023/07/16 07:20:12;;;;;;;3.08;2.17;;;;;;;21.30;66.91;98603.59;5034051;28;20029;-81
2023/07/16 07:22:38;;;;;;;4.30;1.92;;;;;;;21.34;66.48;98596.44;5033982;28;20500;-81
2023/07/16 07:25:04;;;;;;;3.05;2.15;;;;;;;21.45;66.00;98611.22;5034212;28;20044;-81
2023/07/16 07:27:29;;;;;;;4.10;2.90;;;;;;;21.42;66.46;98601.03;5017105;28;20465;-81
2023/07/16 07:29:55;;;;;;;4.93;2.97;;;;;;;21.44;66.02;98609.66;5017243;28;20029;-81
2023/07/16 07:32:22;;;;;;;7.97;2.92;;;;;;;21.62;65.23;98613.91;5035171;28;20034;-81
2023/07/16 07:34:47;;;;;;;4.20;2.50;;;;;;;21.57;65.69;98609.44;5016873;28;20096;-81
2023/07/16 07:37:13;;;;;;;5.85;2.42;;;;;;;21.57;65.93;98611.34;5034645;28;20438;-81
2023/07/16 07:39:38;;;;;;;4.15;2.03;;;;;;;21.57;65.12;98603.22;5034400;28;20036;-81
2023/07/16 07:42:04;;;;;;;3.40;2.28;;;;;;;21.70;64.90;98614.97;5033705;28;20167;-82
2023/07/16 07:44:29;;;;;;;6.35;2.80;;;;;;;21.61;64.84;98613.09;5033651;28;20084;-81
2023/07/16 07:46:55;;;;;;;6.50;3.38;;;;;;;21.69;63.88;98606.03;5034448;28;20022;-81
2023/07/16 07:49:20;;;;;;;2.63;2.30;;;;;;;21.69;64.14;98605.25;5016914;28;20022;-81
2023/07/16 07:51:47;;;;;;;5.53;2.28;;;;;;;21.61;63.52;98610.38;5016713;28;20022;-81
2023/07/16 07:54:12;;;;;;;6.38;3.42;;;;;;;21.71;63.76;98611.91;5017290;28;20041;-81
2023/07/16 07:56:38;;;;;;;4.75;2.80;;;;;;;21.72;63.46;98610.81;5034502;28;20038;-81
2023/07/16 07:59:04;;;;;;;6.55;2.50;;;;;;;21.81;62.69;98608.06;5033262;28;20026;-81
2023/07/16 08:01:29;;;;;;;6.15;2.47;;;;;;;21.81;61.89;98600.69;5016634;28;20370;-81
2023/07/16 08:03:55;;;;;;;4.40;2.47;;;;;;;21.77;62.79;98618.78;5033420;28;20489;-80
2023/07/16 08:06:20;;;;;;;4.63;2.42;;;;;;;21.65;62.39;98599.66;5016392;28;20033;-81
2023/07/16 08:08:45;;;;;;;6.68;2.95;;;;;;;21.70;61.80;98625.84;5016225;28;20036;-81
2023/07/16 08:11:11;;;;;;;3.95;2.22;;;;;;;21.71;60.66;98620.06;5016491;28;20036;-81
2023/07/16 08:13:36;;;;;;;9.68;3.05;;;;;;;21.77;59.32;98615.25;5032525;28;20084;-81
2023/07/16 08:16:01;;;;;;;7.05;3.38;;;;;;;21.70;59.94;98613.06;5033167;28;20026;-81
2023/07/16 08:18:27;;;;;;;4.30;2.40;;;;;;;21.69;60.09;98614.16;5032436;28;20021;-81
2023/07/16 08:20:52;;;;;;;4.93;2.30;;;;;;;21.74;58.99;98613.19;5033825;28;20106;-81
2023/07/16 08:23:18;;;;;;;7.18;3.08;;;;;;;21.64;58.82;98590.69;5034362;28;20033;-81
2023/07/16 08:25:44;;;;;;;8.05;2.92;;;;;;;21.85;58.52;98617.16;5032559;28;20061;-81
2023/07/16 08:28:09;;;;;;;8.18;2.53;;;;;;;21.85;58.32;98600.88;5016403;28;20035;-80
2023/07/16 08:30:35;;;;;;;6.20;2.90;;;;;;;21.97;58.09;98626.25;5016377;28;20060;-81
2023/07/16 08:33:00;;;;;;;6.05;2.88;;;;;;;21.92;58.08;98612.03;5049337;28;20034;-81
2023/07/16 08:35:26;;;;;;;4.70;2.35;;;;;;;21.93;57.41;98600.81;5016075;28;20059;-81
2023/07/16 08:37:51;;;;;;;6.20;2.72;;;;;;;21.96;56.83;98611.03;5015988;28;20445;-81
2023/07/16 08:40:17;;;;;;;4.47;2.97;;;;;;;21.94;57.18;98604.34;5033687;28;20045;-81
2023/07/16 08:42:45;;;;;;;5.90;2.55;;;;;;;22.09;56.89;98629.03;5032446;28;20046;-81
2023/07/16 08:45:11;;;;;;;4.88;2.70;;;;;;;22.06;56.67;98607.16;5032335;28;20116;-81
2023/07/16 08:47:36;;;;;;;5.03;3.10;;;;;;;22.16;56.54;98610.28;5032195;28;20021;-80
2023/07/16 08:50:03;;;;;;;4.32;2.38;;;;;;;22.25;56.61;98632.78;5032321;28;20449;-81
2023/07/16 08:52:28;;;;;;;4.68;2.83;;;;;;;22.24;56.01;98617.59;5033695;28;20021;-80
2023/07/16 08:54:54;;;;;;;7.72;3.17;;;;;;;22.36;56.52;98634.00;5032251;28;20056;-81
2023/07/16 08:57:21;;;;;;;3.97;2.70;;;;;;;22.37;55.54;98629.31;5031776;28;20033;-81
2023/07/16 08:59:50;;;;;;;6.20;2.78;;;;;;;22.44;56.31;98621.44;5033163;28;20036;-80
2023/07/16 09:02:20;;;;;;;6.35;2.67;;;;;;;22.37;55.82;98632.06;5033806;28;20052;-80
2023/07/16 09:04:50;;;;;;;6.68;2.92;;;;;;;22.47;56.38;98625.44;5048591;28;20065;-81
2023/07/16 09:07:16;;;;;;;10.40;2.97;;;;;;;22.34;56.09;98627.28;5015744;28;20029;-80
2023/07/16 09:09:42;;;;;;;8.20;3.03;;;;;;;22.44;55.60;98628.81;5033328;28;20381;-81
2023/07/16 09:12:12;;;;;;;4.10;2.72;;;;;;;22.44;55.12;98634.25;5033264;28;20079;-81
2023/07/16 09:14:37;;;;;;;4.57;2.63;;;;;;;22.48;55.22;98643.34;5031762;28;20098;-81
2023/07/16 09:17:03;;;;;;;4.32;2.10;;;;;;;22.51;54.61;98632.59;5015052;28;20029;-80
2023/07/16 09:19:32;;;;;;;4.68;2.95;;;;;;;22.53;54.92;98629.53;5033105;28;20038;-81
2023/07/16 09:21:58;;;;;;;4.57;2.95;;;;;;;22.53;54.63;98621.38;5031623;28;20052;-81
2023/07/16 09:24:23;;;;;;;5.95;2.63;;;;;;;22.70;53.48;98632.97;5031003;28;20026;-80
2023/07/16 09:26:53;;;;;;;5.43;3.00;;;;;;;22.76;55.45;98647.16;5032529;28;20036;-81
2023/07/16 09:29:19;;;;;;;3.78;2.78;;;;;;;22.83;53.43;98653.66;5032933;28;20648;-81
2023/07/16 09:32:11;;;;;;;6.63;2.47;;;;;;;22.89;53.05;98635.97;5031711;28;20026;-81
2023/07/16 09:34:37;;;;;;;7.57;3.05;;;;;;;22.90;53.16;98650.41;5030559;28;20041;-81
2023/07/16 09:37:04;;;;;;;6.35;2.72;;;;;;;22.98;53.25;98666.66;5014519;28;20396;-81
2023/07/16 09:39:32;;;;;;;3.78;2.70;;;;;;;23.00;53.41;98671.75;5015405;28;20037;-81
2023/07/16 09:41:57;;;;;;;5.97;2.83;;;;;;;22.84;52.65;98659.91;5031295;28;20029;-81
2023/07/16 09:44:23;;;;;;;5.85;2.85;;;;;;;22.92;52.92;98675.34;5031357;28;20107;-81
2023/07/16 09:46:48;;;;;;;7.57;3.15;;;;;;;22.92;52.38;98668.00;5014759;28;20583;-80
2023/07/16 09:49:15;;;;;;;4.18;2.88;;;;;;;22.72;53.24;98659.81;5014978;28;20026;-81
2023/07/16 09:51:43;;;;;;;5.47;3.10;;;;;;;22.81;51.79;98666.00;5031288;28;20108;-80
2023/07/16 09:54:11;;;;;;;5.97;3.28;;;;;;;22.83;51.53;98667.25;5031297;28;20079;-80
2023/07/16 09:56:40;;;;;;;3.80;3.00;;;;;;;22.94;51.09;98678.53;5030920;28;20040;-81
2023/07/16 09:59:12;;;;;;;7.50;3.53;;;;;;;22.80;51.95;98678.81;5032400;28;20028;-81
2023/07/16 10:01:40;;;;;;;4.63;2.80;;;;;;;22.75;51.86;98667.34;5031068;28;20029;-81
2023/07/16 10:04:19;;;;;;;5.80;3.55;;;;;;;22.82;52.48;98682.03;5014945;28;20039;-81
2023/07/16 10:06:59;;;;;;;4.38;2.65;;;;;;;22.92;51.18;98686.25;5030601;28;20033;-81
2023/07/16 10:09:41;;;;;;;5.32;2.90;;;;;;;23.00;51.04;98674.47;5033635;28;20473;-81
2023/07/16 10:12:10;;;;;;;4.90;2.75;;;;;;;22.99;51.48;98683.78;5031036;28;20124;-81
2023/07/16 10:14:47;;;;;;;6.85;3.25;;;;;;;22.97;51.37;98692.31;5030974;28;20025;-80
2023/07/16 10:17:15;;;;;;;6.15;3.55;;;;;;;23.03;50.64;98682.00;5032021;28;20584;-81
2023/07/16 10:19:51;;;;;;;4.38;2.97;;;;;;;23.23;50.77;98677.66;5030454;28;20021;-81
2023/07/16 10:22:31;;;;;;;6.70;2.95;;;;;;;23.31;50.87;98655.78;5030799;28;20087;-81
2023/07/16 10:24:57;;;;;;;5.35;3.22;;;;;;;23.48;50.90;98663.78;5032072;28;20377;-81
2023/07/16 10:27:30;;;;;;;4.65;3.00;;;;;;;23.72;50.80;98672.00;5014132;28;20033;-81
2023/07/16 10:29:55;;;;;;;4.18;3.13;;;;;;;23.82;51.30;98668.88;5014040;28;20049;-81
2023/07/16 10:32:21;;;;;;;5.43;3.30;;;;;;;23.76;51.12;98659.28;5030901;28;20060;-81
2023/07/16 10:34:46;;;;;;;3.35;3.13;;;;;;;23.82;50.95;98651.69;5030286;28;20056;-81
2023/07/16 10:37:12;;;;;;;5.63;3.10;;;;;;;23.98;51.08;98679.09;5013686;28;20156;-81
2023/07/16 10:39:47;;;;;;;7.55;3.40;;;;;;;24.02;52.17;98660.91;5013701;28;20029;-81
2023/07/16 10:42:12;;;;;;;8.05;3.78;;;;;;;24.19;51.11;98677.88;5030217;28;20022;-81
2023/07/16 10:44:39;;;;;;;5.30;3.10;;;;;;;24.13;49.77;98676.53;5030328;28;20036;-80
2023/07/16 10:47:05;;;;;;;3.67;2.70;;;;;;;24.30;51.19;98683.66;5013656;28;20064;-81
2023/07/16 10:49:30;;;;;;;7.95;3.35;;;;;;;24.45;49.86;98681.03;5030450;28;20041;-81
2023/07/16 10:52:00;;;;;;;7.65;3.00;;;;;;;24.45;49.21;98678.31;5030285;28;20509;-81
2023/07/16 10:54:25;;;;;;;4.30;3.63;;;;;;;24.32;49.65;98659.56;5031450;28;20031;-81
2023/07/16 10:56:51;;;;;;;4.95;2.90;;;;;;;24.34;49.16;98681.84;5013430;28;20121;-81
2023/07/16 10:59:17;;;;;;;4.38;3.53;;;;;;;24.48;48.89;98690.47;5031388;28;20512;-81
2023/07/16 11:01:43;;;;;;;4.57;3.50;;;;;;;24.47;48.52;98680.69;5030157;28;20052;-81
2023/07/16 11:04:08;;;;;;;10.55;3.17;;;;;;;24.61;48.37;98672.94;5030057;28;20030;-80
2023/07/16 11:06:35;;;;;;;5.93;3.35;;;;;;;24.80;48.22;98681.34;5030112;28;20040;-81
2023/07/16 11:09:09;;;;;;;7.70;3.40;;;;;;;24.75;48.10;98670.66;5030126;28;20021;-80
2023/07/16 11:11:35;;;;;;;5.45;3.28;;;;;;;24.93;48.76;98669.25;5030118;28;20025;-81
2023/07/16 11:14:04;;;;;;;7.05;3.22;;;;;;;24.95;47.75;98672.41;4997160;28;20350;-81
2023/07/16 11:16:36;;;;;;;6.50;3.38;;;;;;;24.95;48.40;98668.88;5013575;28;20097;-81
2023/07/16 11:19:06;;;;;;;5.65;3.78;;;;;;;24.77;48.89;98660.19;5029780;28;20127;-80
2023/07/16 11:21:33;;;;;;;5.20;3.47;;;;;;;24.74;48.34;98679.97;4997256;28;20022;-81
2023/07/16 11:24:15;;;;;;;6.60;3.30;;;;;;;24.74;47.89;98666.31;5031350;28;20047;-81
2023/07/16 11:26:50;;;;;;;5.22;3.40;;;;;;;24.82;47.12;98679.06;5031069;28;20056;-81
2023/07/16 11:29:15;;;;;;;4.33;3.50;;;;;;;24.94;47.05;98668.09;5013468;28;20025;-81
2023/07/16 11:31:41;;;;;;;5.80;3.78;;;;;;;24.84;47.74;98682.22;5031104;28;20266;-81